createdAt,value
2023-04-24T00:00:53.930Z,20.05
2023-04-24T00:02:58.245Z,19.00
2023-04-24T00:05:03.917Z,17.92
2023-04-24T00:07:07.735Z,18.42
2023-04-24T00:09:10.881Z,17.00
2023-04-24T00:11:12.360Z,19.52
2023-04-24T00:13:13.924Z,20.52
2023-04-24T00:15:15.416Z,22.65
2023-04-24T00:17:17.178Z,21.10
2023-04-24T00:19:18.608Z,21.83
2023-04-24T00:21:20.022Z,24.38
2023-04-24T00:23:21.466Z,24.20
2023-04-24T00:25:23.014Z,26.33
2023-04-24T00:27:24.415Z,23.05
2023-04-24T00:29:25.967Z,21.02
2023-04-24T00:31:27.423Z,20.70
2023-04-24T00:33:28.865Z,18.58
2023-04-24T00:35:30.278Z,18.05
2023-04-24T00:37:31.796Z,18.25
2023-04-24T00:39:33.309Z,18.90
2023-04-24T00:41:34.740Z,18.15
2023-04-24T00:43:36.164Z,19.35
2023-04-24T00:45:37.549Z,17.98
2023-04-24T00:47:39.553Z,16.35
2023-04-24T00:49:41.369Z,16.73
2023-04-24T00:51:46.553Z,16.02
2023-04-24T00:53:48.094Z,15.85
2023-04-24T00:55:49.668Z,16.08
2023-04-24T00:57:51.590Z,14.23
2023-04-24T00:59:53.448Z,14.80
2023-04-24T01:01:54.900Z,15.32
2023-04-24T01:03:56.623Z,17.25
2023-04-24T01:05:58.626Z,17.08
2023-04-24T01:08:00.432Z,17.27
2023-04-24T01:10:01.928Z,16.02
2023-04-24T01:12:03.653Z,17.42
2023-04-24T01:14:05.215Z,17.77
2023-04-24T01:16:06.762Z,18.60
2023-04-24T01:18:08.262Z,16.55
2023-04-24T01:20:10.084Z,16.90
2023-04-24T01:22:15.093Z,17.90
2023-04-24T01:24:16.679Z,19.65
2023-04-24T01:26:18.360Z,21.67
2023-04-24T01:28:20.522Z,19.60
2023-04-24T01:30:22.054Z,19.60
2023-04-24T01:32:24.323Z,17.90
2023-04-24T01:34:26.030Z,18.23
2023-04-24T01:36:28.434Z,19.27
2023-04-24T01:38:29.916Z,18.25
2023-04-24T01:40:31.778Z,16.80
2023-04-24T01:42:33.206Z,17.08
2023-04-24T01:44:34.791Z,16.95
2023-04-24T01:46:36.890Z,16.17
2023-04-24T01:48:38.531Z,18.00
2023-04-24T01:50:40.042Z,18.10
2023-04-24T01:52:41.520Z,17.90
2023-04-24T01:54:42.993Z,17.42
2023-04-24T01:56:44.675Z,18.40
2023-04-24T01:58:46.265Z,19.13
2023-04-24T02:00:47.765Z,20.67
2023-04-24T02:02:49.295Z,20.15
2023-04-24T02:04:51.162Z,19.50
2023-04-24T02:06:52.629Z,20.48
2023-04-24T02:08:54.361Z,21.58
2023-04-24T02:10:55.956Z,23.33
2023-04-24T02:12:57.528Z,21.10
2023-04-24T02:14:59.059Z,21.55
2023-04-24T02:17:01.685Z,23.40
2023-04-24T02:19:03.443Z,25.38
2023-04-24T02:21:05.023Z,23.55
2023-04-24T02:23:06.450Z,23.83
2023-04-24T02:25:09.096Z,25.05
2023-04-24T02:27:11.075Z,29.80
2023-04-24T02:29:12.519Z,34.30
2023-04-24T02:31:14.003Z,31.15
2023-04-24T02:33:15.792Z,27.77
2023-04-24T02:35:17.510Z,30.42
2023-04-24T02:37:19.085Z,29.45
2023-04-24T02:39:20.691Z,29.30
2023-04-24T02:41:22.124Z,30.95
2023-04-24T02:43:23.687Z,29.77
2023-04-24T02:45:25.392Z,26.85
2023-04-24T02:47:26.931Z,29.23
2023-04-24T02:49:28.448Z,33.15
2023-04-24T02:51:30.289Z,27.05
2023-04-24T02:53:31.804Z,30.75
2023-04-24T02:55:33.225Z,27.08
2023-04-24T02:57:34.905Z,28.60
2023-04-24T02:59:36.379Z,32.20
2023-04-24T03:01:37.793Z,33.63
2023-04-24T03:03:39.903Z,29.00
2023-04-24T03:05:41.509Z,29.75
2023-04-24T03:07:42.940Z,27.05
2023-04-24T03:09:44.650Z,27.70
2023-04-24T03:11:46.296Z,25.45
2023-04-24T03:13:47.788Z,26.50
2023-04-24T03:15:49.248Z,31.20
2023-04-24T03:17:50.730Z,28.88
2023-04-24T03:19:52.587Z,25.52
2023-04-24T03:21:54.010Z,25.27
2023-04-24T03:23:55.849Z,26.17
2023-04-24T03:25:57.449Z,26.50
2023-04-24T03:27:58.903Z,25.55
2023-04-24T03:30:01.759Z,26.27
2023-04-24T03:32:03.317Z,27.75
2023-04-24T03:34:04.812Z,28.42
2023-04-24T03:36:06.433Z,27.90
2023-04-24T03:38:07.886Z,24.48
2023-04-24T03:40:09.717Z,24.63
2023-04-24T03:42:11.165Z,24.00
2023-04-24T03:44:12.559Z,23.42
2023-04-24T03:46:14.225Z,24.48
2023-04-24T03:48:15.868Z,24.83
2023-04-24T03:50:17.285Z,25.23
2023-04-24T03:52:18.686Z,27.15
2023-04-24T03:54:20.480Z,26.05
2023-04-24T03:56:22.027Z,24.10
2023-04-24T03:58:23.470Z,21.25
2023-04-24T04:00:24.969Z,19.45
2023-04-24T04:02:26.416Z,17.23
2023-04-24T04:04:28.034Z,18.13
2023-04-24T04:06:29.803Z,17.77
2023-04-24T04:08:31.386Z,17.73
2023-04-24T04:10:32.817Z,17.55
2023-04-24T04:12:34.325Z,17.00
2023-04-24T04:14:35.882Z,16.92
2023-04-24T04:16:37.557Z,16.63
2023-04-24T04:18:39.181Z,15.60
2023-04-24T04:20:40.584Z,16.02
2023-04-24T04:22:44.320Z,15.50
2023-04-24T04:24:47.332Z,16.00
2023-04-24T04:26:52.111Z,15.25
2023-04-24T04:28:54.091Z,15.38
2023-04-24T04:30:56.406Z,15.15
2023-04-24T04:32:57.864Z,15.13
2023-04-24T04:34:59.648Z,14.98
2023-04-24T04:37:02.745Z,16.17
2023-04-24T04:39:05.023Z,18.05
2023-04-24T04:41:06.552Z,21.05
2023-04-24T04:43:07.982Z,21.42
2023-04-24T04:45:12.780Z,22.33
2023-04-24T04:47:14.422Z,21.27
2023-04-24T04:49:17.785Z,18.40
2023-04-24T04:51:19.307Z,18.75
2023-04-24T04:53:20.951Z,16.55
2023-04-24T04:55:22.472Z,16.83
2023-04-24T04:57:24.026Z,19.10
2023-04-24T04:59:25.863Z,16.65
2023-04-24T05:01:28.903Z,15.77
2023-04-24T05:03:30.530Z,14.63
2023-04-24T05:05:32.142Z,13.57
2023-04-24T05:07:33.666Z,14.20
2023-04-24T05:09:35.084Z,14.70
2023-04-24T05:11:36.496Z,15.02
2023-04-24T05:13:40.668Z,13.77
2023-04-24T05:15:42.603Z,12.85
2023-04-24T05:17:44.064Z,11.98
2023-04-24T05:19:46.072Z,12.80
2023-04-24T05:21:47.732Z,12.25
2023-04-24T05:23:49.142Z,11.23
2023-04-24T05:25:50.636Z,13.25
2023-04-24T05:27:52.097Z,11.45
2023-04-24T05:29:53.583Z,11.20
2023-04-24T05:31:55.157Z,10.13
2023-04-24T05:33:56.652Z,10.13
2023-04-24T05:35:58.700Z,10.63
2023-04-24T05:38:00.689Z,10.68
2023-04-24T05:40:02.123Z,18.77
2023-04-24T05:42:05.458Z,19.85
2023-04-24T05:44:06.860Z,14.20
2023-04-24T05:46:08.358Z,12.45
2023-04-24T05:48:09.834Z,10.57
2023-04-24T05:50:11.920Z,8.35
2023-04-24T05:52:13.436Z,8.32
2023-04-24T05:54:15.048Z,9.38
2023-04-24T05:56:16.740Z,9.02
2023-04-24T05:58:18.213Z,8.68
2023-04-24T06:00:21.000Z,8.73
2023-04-24T06:02:23.040Z,8.90
2023-04-24T06:04:25.771Z,8.85
2023-04-24T06:06:28.277Z,8.32
2023-04-24T06:08:29.790Z,7.95
2023-04-24T06:10:31.258Z,7.18
2023-04-24T06:12:32.675Z,7.72
2023-04-24T06:14:34.106Z,7.20
2023-04-24T06:16:35.564Z,7.20
2023-04-24T06:18:37.093Z,8.52
2023-04-24T06:20:38.526Z,8.13
2023-04-24T06:22:41.043Z,7.50
2023-04-24T06:24:42.531Z,7.05
2023-04-24T06:26:44.000Z,5.95
2023-04-24T06:28:45.418Z,6.88
2023-04-24T06:30:46.905Z,5.50
2023-04-24T06:32:48.419Z,5.50
2023-04-24T06:34:49.913Z,5.30
2023-04-24T06:36:51.474Z,4.80
2023-04-24T06:38:52.866Z,5.15
2023-04-24T06:40:54.238Z,5.20
2023-04-24T06:42:55.837Z,4.50
2023-04-24T06:44:57.250Z,4.78
2023-04-24T06:46:58.688Z,4.57
2023-04-24T06:49:00.443Z,5.05
2023-04-24T06:51:01.852Z,4.55
2023-04-24T06:53:03.252Z,4.90
2023-04-24T06:55:04.999Z,4.50
2023-04-24T06:57:06.426Z,4.70
2023-04-24T06:59:07.878Z,4.68
2023-04-24T07:01:09.313Z,4.20
2023-04-24T07:03:11.238Z,4.45
2023-04-24T07:05:13.814Z,4.43
2023-04-24T07:07:15.446Z,4.22
2023-04-24T07:09:20.023Z,4.85
2023-04-24T07:11:21.951Z,5.35
2023-04-24T07:13:23.661Z,4.20
2023-04-24T07:15:25.110Z,3.97
2023-04-24T07:17:26.846Z,4.70
2023-04-24T07:19:28.308Z,6.15
2023-04-24T07:21:29.863Z,10.73
2023-04-24T07:23:32.295Z,9.32
2023-04-24T07:25:33.971Z,5.03
2023-04-24T07:27:35.862Z,5.72
2023-04-24T07:29:37.342Z,4.43
2023-04-24T07:31:39.020Z,4.63
2023-04-24T07:33:40.504Z,4.55
2023-04-24T07:35:41.880Z,4.07
2023-04-24T07:37:46.791Z,4.75
2023-04-24T07:39:48.620Z,4.32
2023-04-24T07:41:49.995Z,4.20
2023-04-24T07:43:51.918Z,4.57
2023-04-24T07:45:53.739Z,4.00
2023-04-24T07:47:55.435Z,6.10
2023-04-24T07:49:57.018Z,6.40
2023-04-24T07:51:58.532Z,4.85
2023-04-24T07:54:00.053Z,4.15
2023-04-24T07:56:01.530Z,5.30
2023-04-24T07:58:03.045Z,3.63
2023-04-24T08:00:05.193Z,4.30
2023-04-24T08:02:07.284Z,4.05
2023-04-24T08:04:08.906Z,4.53
2023-04-24T08:06:10.675Z,4.07
2023-04-24T08:08:12.227Z,3.72
2023-04-24T08:10:14.387Z,4.18
2023-04-24T08:12:16.087Z,4.22
2023-04-24T08:14:17.610Z,4.35
2023-04-24T08:16:19.242Z,4.10
2023-04-24T08:18:20.695Z,3.92
2023-04-24T08:20:22.194Z,4.07
2023-04-24T08:22:23.628Z,4.22
2023-04-24T08:24:25.281Z,4.07
2023-04-24T08:26:26.768Z,3.10
2023-04-24T08:28:28.211Z,3.25
2023-04-24T08:30:29.842Z,3.50
2023-04-24T08:32:31.471Z,3.65
2023-04-24T08:34:32.902Z,3.58
2023-04-24T08:36:45.860Z,3.22
2023-04-24T08:38:48.264Z,3.47
2023-04-24T08:40:50.672Z,3.50
2023-04-24T08:42:54.770Z,3.60
2023-04-24T08:44:57.649Z,3.67
2023-04-24T08:46:59.062Z,3.30
2023-04-24T08:49:00.616Z,4.00
2023-04-24T08:51:03.492Z,4.32
2023-04-24T08:53:05.286Z,3.90
2023-04-24T08:55:06.954Z,3.38
2023-04-24T08:57:09.084Z,3.20
2023-04-24T08:59:11.162Z,3.60
2023-04-24T09:01:13.070Z,3.28
2023-04-24T09:03:16.820Z,3.85
2023-04-24T09:05:20.009Z,3.17
2023-04-24T09:07:23.146Z,3.30
2023-04-24T09:09:25.740Z,3.80
2023-04-24T09:11:27.673Z,3.22
2023-04-24T09:13:29.682Z,3.45
2023-04-24T09:15:31.439Z,4.00
2023-04-24T09:17:33.361Z,3.65
2023-04-24T09:19:34.942Z,3.75
2023-04-24T09:21:36.759Z,3.20
2023-04-24T09:23:38.368Z,3.30
2023-04-24T09:25:39.792Z,2.80
2023-04-24T09:27:46.055Z,3.25
2023-04-24T09:29:57.141Z,3.70
2023-04-24T09:31:58.687Z,3.38
2023-04-24T09:34:02.631Z,3.38
2023-04-24T09:36:05.517Z,3.60
2023-04-24T09:38:06.942Z,4.53
2023-04-24T09:40:17.344Z,3.13
2023-04-24T09:42:18.869Z,3.55
2023-04-24T09:44:23.868Z,2.97
2023-04-24T09:46:34.628Z,3.45
2023-04-24T09:48:38.933Z,3.28
2023-04-24T09:50:40.426Z,3.33
2023-04-24T09:52:42.961Z,4.15
2023-04-24T09:54:53.394Z,3.15
2023-04-24T09:56:55.730Z,3.67
2023-04-24T09:59:04.800Z,3.50
2023-04-24T10:01:06.311Z,3.88
2023-04-24T10:03:08.118Z,3.58
2023-04-24T10:05:12.231Z,3.30
2023-04-24T10:07:15.845Z,3.20
2023-04-24T10:09:18.376Z,3.63
2023-04-24T10:11:19.911Z,3.20
2023-04-24T10:13:21.355Z,3.53
2023-04-24T10:15:23.076Z,3.33
2023-04-24T10:17:25.682Z,2.97
2023-04-24T10:19:27.519Z,5.97
2023-04-24T10:21:29.097Z,3.17
2023-04-24T10:23:31.338Z,2.40
2023-04-24T10:25:34.063Z,2.88
2023-04-24T10:27:35.908Z,2.83
2023-04-24T10:29:39.882Z,3.05
2023-04-24T10:31:41.778Z,3.00
2023-04-24T10:33:43.980Z,2.90
2023-04-24T10:35:46.771Z,2.83
2023-04-24T10:37:49.990Z,2.97
2023-04-24T10:39:52.452Z,2.80
2023-04-24T10:41:54.585Z,2.85
2023-04-24T10:44:13.362Z,3.00
2023-04-24T10:46:20.279Z,3.43
2023-04-24T10:48:27.339Z,3.88
2023-04-24T10:50:31.226Z,3.40
2023-04-24T10:52:58.794Z,2.50
2023-04-24T10:55:02.637Z,3.30
2023-04-24T10:57:19.621Z,2.67
2023-04-24T10:59:35.881Z,4.38
2023-04-24T11:01:39.288Z,3.00
2023-04-24T11:03:51.346Z,2.88
2023-04-24T11:06:08.427Z,3.70
2023-04-24T11:08:14.006Z,3.20
2023-04-24T11:10:26.294Z,2.75
2023-04-24T11:12:27.970Z,3.00
2023-04-24T11:14:29.424Z,2.63
2023-04-24T11:16:34.293Z,3.67
2023-04-24T11:18:39.446Z,3.25
2023-04-24T11:20:44.777Z,2.97
2023-04-24T11:22:46.206Z,3.22
2023-04-24T11:24:47.566Z,2.88
2023-04-24T11:26:48.973Z,3.92
2023-04-24T11:28:51.231Z,3.20
2023-04-24T11:30:53.766Z,3.22
2023-04-24T11:32:55.463Z,2.97
2023-04-24T11:35:02.404Z,2.83
2023-04-24T11:37:04.217Z,2.75
2023-04-24T11:39:05.952Z,3.50
2023-04-24T11:41:08.406Z,2.85
2023-04-24T11:43:10.004Z,3.15
2023-04-24T11:45:13.510Z,2.85
2023-04-24T11:47:15.091Z,3.05
2023-04-24T11:49:16.661Z,3.08
2023-04-24T11:51:18.078Z,3.10
2023-04-24T11:53:20.680Z,2.90
2023-04-24T11:55:22.059Z,3.63
2023-04-24T11:57:25.502Z,3.30
2023-04-24T11:59:27.061Z,3.40
2023-04-24T12:01:29.589Z,3.35
2023-04-24T12:03:31.322Z,3.38
2023-04-24T12:05:33.182Z,3.38
2023-04-24T12:07:43.677Z,3.53
2023-04-24T12:09:47.602Z,3.60
2023-04-24T12:11:57.996Z,5.28
2023-04-24T12:14:10.476Z,4.15
2023-04-24T12:16:12.210Z,3.08
2023-04-24T12:18:14.254Z,3.33
2023-04-24T12:20:15.930Z,3.50
2023-04-24T12:22:17.668Z,4.72
2023-04-24T12:24:19.118Z,2.97
2023-04-24T12:26:20.978Z,3.53
2023-04-24T12:28:22.454Z,3.35
2023-04-24T12:30:28.330Z,3.30
2023-04-24T12:32:29.835Z,3.67
2023-04-24T12:34:32.713Z,3.65
2023-04-24T12:36:36.136Z,3.75
2023-04-24T12:38:41.681Z,2.90
2023-04-24T12:40:43.776Z,3.25
2023-04-24T12:42:49.822Z,3.00
2023-04-24T12:44:51.396Z,3.13
2023-04-24T12:46:52.882Z,2.90
2023-04-24T12:48:54.450Z,3.55
2023-04-24T12:50:57.538Z,3.03
2023-04-24T12:52:58.941Z,2.97
2023-04-24T12:55:01.020Z,2.72
2023-04-24T12:57:02.520Z,3.17
2023-04-24T12:59:04.031Z,2.70
2023-04-24T13:01:05.840Z,2.40
2023-04-24T13:03:07.474Z,3.10
2023-04-24T13:05:09.655Z,3.65
2023-04-24T13:07:11.085Z,3.17
2023-04-24T13:09:12.555Z,3.42
2023-04-24T13:11:13.986Z,3.10
2023-04-24T13:13:15.424Z,3.25
2023-04-24T13:15:17.014Z,3.25
2023-04-24T13:17:18.501Z,3.30
2023-04-24T13:19:20.232Z,3.40
2023-04-24T13:21:21.680Z,3.17
2023-04-24T13:23:23.928Z,3.38
2023-04-24T13:25:25.995Z,3.30
2023-04-24T13:27:27.464Z,2.97
2023-04-24T13:29:29.127Z,2.72
2023-04-24T13:31:30.716Z,3.47
2023-04-24T13:33:32.289Z,3.28
2023-04-24T13:35:33.754Z,2.83
2023-04-24T13:37:35.227Z,3.20
2023-04-24T13:39:36.701Z,3.47
2023-04-24T13:41:38.270Z,2.97
2023-04-24T13:43:39.740Z,3.05
2023-04-24T13:45:41.427Z,3.03
2023-04-24T13:47:43.021Z,2.83
2023-04-24T13:49:44.463Z,2.88
2023-04-24T13:51:46.816Z,3.88
2023-04-24T13:53:48.300Z,3.25
2023-04-24T13:55:49.701Z,3.50
2023-04-24T13:57:51.146Z,3.35
2023-04-24T13:59:52.556Z,3.85
2023-04-24T14:01:54.191Z,4.18
2023-04-24T14:03:56.952Z,3.60
2023-04-24T14:05:58.713Z,3.55
2023-04-24T14:08:00.186Z,3.53
2023-04-24T14:10:01.729Z,4.13
2023-04-24T14:12:03.328Z,5.72
2023-04-24T14:14:04.988Z,5.28
2023-04-24T14:16:07.392Z,5.63
2023-04-24T14:18:08.936Z,9.73
2023-04-24T14:20:10.498Z,7.78
2023-04-24T14:22:11.908Z,6.45
2023-04-24T14:24:13.267Z,5.50
2023-04-24T14:26:14.741Z,5.63
2023-04-24T14:28:16.570Z,6.60
2023-04-24T14:30:19.526Z,4.88
2023-04-24T14:32:20.971Z,5.30
2023-04-24T14:34:22.385Z,5.45
2023-04-24T14:36:23.856Z,4.80
2023-04-24T14:38:25.307Z,7.78
2023-04-24T14:40:48.561Z,9.48
2023-04-24T14:42:48.288Z,5.05
2023-04-24T14:44:49.695Z,5.68
2023-04-24T14:46:51.369Z,5.80
2023-04-24T14:48:52.814Z,5.10
2023-04-24T14:50:54.618Z,5.20
2023-04-24T14:52:58.553Z,5.07
2023-04-24T14:55:00.067Z,4.90
2023-04-24T14:57:02.565Z,4.70
2023-04-24T14:59:04.767Z,4.45
2023-04-24T15:01:06.304Z,4.63
2023-04-24T15:03:08.581Z,6.00
2023-04-24T15:05:10.545Z,5.60
2023-04-24T15:07:12.259Z,5.32
2023-04-24T15:09:13.841Z,5.55
2023-04-24T15:11:15.675Z,11.65
2023-04-24T15:13:17.090Z,6.55
2023-04-24T15:15:18.599Z,13.25
2023-04-24T15:17:20.003Z,13.73
2023-04-24T15:19:21.403Z,8.82
2023-04-24T15:21:22.910Z,5.45
2023-04-24T15:23:24.638Z,5.95
2023-04-24T15:25:26.107Z,7.28
2023-04-24T15:27:27.598Z,11.55
2023-04-24T15:29:29.388Z,8.80
2023-04-24T15:31:30.916Z,7.35
2023-04-24T15:33:32.703Z,8.95
2023-04-24T15:35:34.532Z,9.13
2023-04-24T15:37:35.998Z,8.77
2023-04-24T15:39:37.826Z,6.65
2023-04-24T15:41:39.505Z,6.95
2023-04-24T15:43:42.246Z,7.50
2023-04-24T15:45:44.027Z,6.90
2023-04-24T15:47:47.092Z,5.72
2023-04-24T15:49:48.656Z,6.93
2023-04-24T15:51:50.084Z,5.05
2023-04-24T15:53:51.641Z,5.57
2023-04-24T15:55:53.182Z,4.38
2023-04-24T15:57:54.974Z,4.28
2023-04-24T15:59:56.706Z,4.70
2023-04-24T16:01:58.330Z,4.22
2023-04-24T16:04:00.981Z,3.97
2023-04-24T16:06:02.701Z,7.45
2023-04-24T16:08:04.264Z,4.40
2023-04-24T16:10:06.429Z,7.22
2023-04-24T16:12:07.997Z,5.40
2023-04-24T16:14:10.714Z,6.97
2023-04-24T16:16:12.431Z,10.70
2023-04-24T16:18:13.923Z,16.50
2023-04-24T16:20:15.613Z,5.85
2023-04-24T16:22:17.371Z,3.90
2023-04-24T16:24:18.886Z,9.57
2023-04-24T16:26:20.309Z,5.07
2023-04-24T16:28:22.776Z,6.28
2023-04-24T16:30:24.271Z,4.35
2023-04-24T16:32:25.814Z,4.78
2023-04-24T16:34:27.251Z,4.93
2023-04-24T16:36:29.262Z,4.63
2023-04-24T16:38:30.808Z,4.80
2023-04-24T16:40:32.250Z,5.57
2023-04-24T16:42:33.682Z,5.88
2023-04-24T16:44:36.565Z,6.57
2023-04-24T16:46:38.213Z,5.05
2023-04-24T16:48:39.631Z,4.90
2023-04-24T16:50:41.237Z,5.32
2023-04-24T16:52:43.497Z,5.97
2023-04-24T16:54:45.053Z,6.43
2023-04-24T16:56:46.467Z,5.30
2023-04-24T16:58:48.173Z,4.93
2023-04-24T17:00:50.533Z,7.35
2023-04-24T17:02:52.227Z,6.78
2023-04-24T17:04:54.304Z,9.38
2023-04-24T17:06:55.945Z,7.95
2023-04-24T17:08:58.057Z,9.10
2023-04-24T17:10:59.522Z,7.50
2023-04-24T17:13:01.029Z,8.73
2023-04-24T17:15:03.016Z,9.35
2023-04-24T17:17:04.446Z,9.20
2023-04-24T17:19:06.106Z,9.10
2023-04-24T17:21:07.524Z,6.78
2023-04-24T17:23:12.014Z,6.90
2023-04-24T17:25:13.612Z,7.30
2023-04-24T17:27:15.638Z,7.05
2023-04-24T17:29:17.156Z,6.78
2023-04-24T17:31:18.605Z,6.93
2023-04-24T17:33:20.035Z,7.75
2023-04-24T17:35:22.800Z,9.02
2023-04-24T17:37:24.726Z,6.88
2023-04-24T17:39:26.198Z,8.82
2023-04-24T17:41:27.691Z,8.18
2023-04-24T17:43:29.139Z,8.30
2023-04-24T17:45:30.588Z,7.70
2023-04-24T17:47:32.184Z,7.30
2023-04-24T17:49:33.605Z,6.20
2023-04-24T17:51:35.018Z,6.78
2023-04-24T17:53:36.530Z,7.05
2023-04-24T17:55:42.040Z,8.15
2023-04-24T17:57:43.574Z,8.80
2023-04-24T17:59:45.058Z,10.15
2023-04-24T18:01:46.550Z,10.63
2023-04-24T18:03:48.044Z,12.95
2023-04-24T18:05:49.679Z,12.88
2023-04-24T18:07:51.178Z,11.30
2023-04-24T18:09:53.947Z,12.55
2023-04-24T18:11:57.875Z,13.95
2023-04-24T18:13:59.322Z,13.60
2023-04-24T18:16:00.992Z,18.88
2023-04-24T18:18:02.577Z,26.45
2023-04-24T18:20:04.242Z,20.95
2023-04-24T18:22:05.819Z,10.35
2023-04-24T18:24:07.241Z,8.55
2023-04-24T18:26:08.732Z,11.35
2023-04-24T18:28:10.365Z,11.63
2023-04-24T18:30:14.454Z,9.60
2023-04-24T18:32:17.378Z,8.10
2023-04-24T18:34:18.813Z,7.65
2023-04-24T18:36:20.325Z,8.02
2023-04-24T18:38:22.214Z,9.00
2023-04-24T18:40:23.631Z,9.73
2023-04-24T18:42:25.178Z,9.18
2023-04-24T18:44:26.781Z,16.15
2023-04-24T18:46:28.203Z,12.98
2023-04-24T18:48:31.177Z,15.15
2023-04-24T18:50:33.165Z,15.13
2023-04-24T18:52:34.647Z,15.98
2023-04-24T18:54:36.087Z,12.02
2023-04-24T18:56:37.519Z,12.80
2023-04-24T18:58:38.928Z,11.10
2023-04-24T19:00:40.550Z,10.25
2023-04-24T19:02:42.131Z,12.07
2023-04-24T19:04:43.716Z,11.20
2023-04-24T19:06:45.116Z,10.52
2023-04-24T19:08:47.623Z,10.07
2023-04-24T19:10:49.112Z,10.82
2023-04-24T19:12:56.398Z,10.32
2023-04-24T19:14:58.287Z,10.75
2023-04-24T19:16:59.730Z,11.27
2023-04-24T19:19:01.567Z,11.02
2023-04-24T19:21:04.182Z,10.15
2023-04-24T19:23:06.188Z,10.13
2023-04-24T19:25:08.485Z,11.02
2023-04-24T19:27:09.888Z,10.60
2023-04-24T19:29:11.336Z,16.35
2023-04-24T19:31:12.755Z,18.58
2023-04-24T19:33:14.249Z,17.63
2023-04-24T19:35:15.791Z,17.90
2023-04-24T19:37:17.230Z,18.35
2023-04-24T19:39:18.695Z,16.67
2023-04-24T19:41:20.298Z,15.05
2023-04-24T19:43:22.095Z,15.30
2023-04-24T19:45:23.566Z,15.35
2023-04-24T19:47:25.011Z,14.98
2023-04-24T19:49:26.519Z,11.75
2023-04-24T19:51:27.957Z,13.07
2023-04-24T19:53:29.818Z,17.38
2023-04-24T19:55:31.649Z,21.25
2023-04-24T19:57:33.082Z,19.45
2023-04-24T19:59:34.512Z,15.57
2023-04-24T20:01:36.086Z,12.70
2023-04-24T20:03:37.912Z,11.70
2023-04-24T20:05:39.555Z,11.05
2023-04-24T20:07:41.067Z,13.43
2023-04-24T20:09:42.593Z,13.20
2023-04-24T20:11:45.385Z,11.70
2023-04-24T20:13:46.775Z,12.15
2023-04-24T20:15:48.268Z,11.38
2023-04-24T20:17:49.761Z,10.77
2023-04-24T20:19:51.288Z,11.40
2023-04-24T20:21:53.703Z,11.57
2023-04-24T20:23:55.259Z,10.23
2023-04-24T20:25:59.736Z,9.82
2023-04-24T20:28:01.181Z,9.57
2023-04-24T20:30:03.530Z,9.50
2023-04-24T20:32:04.982Z,9.90
2023-04-24T20:34:06.466Z,11.25
2023-04-24T20:36:09.531Z,14.10
2023-04-24T20:38:11.382Z,13.13
2023-04-24T20:40:14.236Z,19.13
2023-04-24T20:42:16.638Z,20.80
2023-04-24T20:44:18.135Z,14.82
2023-04-24T20:46:19.642Z,15.07
2023-04-24T20:48:21.155Z,13.00
2023-04-24T20:50:22.657Z,13.55
2023-04-24T20:52:24.070Z,21.80
2023-04-24T20:54:25.724Z,15.30
2023-04-24T20:56:27.332Z,17.38
2023-04-24T20:58:28.798Z,18.27
2023-04-24T21:00:30.310Z,15.25
2023-04-24T21:02:32.019Z,15.98
2023-04-24T21:04:37.469Z,15.90
2023-04-24T21:06:38.892Z,16.50
2023-04-24T21:08:40.550Z,17.08
2023-04-24T21:10:42.117Z,16.00
2023-04-24T21:12:43.644Z,17.05
2023-04-24T21:14:45.036Z,23.48
2023-04-24T21:16:46.645Z,16.58
2023-04-24T21:18:48.173Z,20.98
2023-04-24T21:20:50.667Z,18.73
2023-04-24T21:22:52.165Z,17.02
2023-04-24T21:24:53.574Z,20.90
2023-04-24T21:26:55.129Z,21.73
2023-04-24T21:28:56.663Z,18.75
2023-04-24T21:30:58.163Z,22.20
2023-04-24T21:32:59.745Z,18.50
2023-04-24T21:35:01.340Z,15.68
2023-04-24T21:37:02.805Z,16.52
2023-04-24T21:39:04.536Z,15.88
2023-04-24T21:41:06.115Z,16.42
2023-04-24T21:43:07.665Z,16.63
2023-04-24T21:45:09.741Z,16.58
2023-04-24T21:47:11.236Z,17.95
2023-04-24T21:49:12.649Z,21.45
2023-04-24T21:51:14.563Z,19.70
2023-04-24T21:53:16.298Z,18.65
2023-04-24T21:55:17.693Z,18.15
2023-04-24T21:57:19.155Z,19.90
2023-04-24T21:59:20.690Z,21.10
2023-04-24T22:01:22.155Z,20.98
2023-04-24T22:03:23.777Z,21.60
2023-04-24T22:05:25.408Z,21.50
2023-04-24T22:07:26.852Z,21.65
2023-04-24T22:09:28.269Z,22.75
2023-04-24T22:11:29.677Z,22.85
2023-04-24T22:13:31.111Z,21.70
2023-04-24T22:15:32.708Z,23.75
2023-04-24T22:17:34.413Z,23.52
2023-04-24T22:19:35.842Z,21.30
2023-04-24T22:21:37.540Z,21.55
2023-04-24T22:23:39.016Z,21.90
2023-04-24T22:25:40.385Z,22.85
2023-04-24T22:27:41.833Z,21.23
2023-04-24T22:29:43.300Z,21.10
2023-04-24T22:31:45.197Z,21.50
2023-04-24T22:33:47.265Z,22.20
2023-04-24T22:35:48.984Z,21.00
2023-04-24T22:37:56.833Z,21.85
2023-04-24T22:40:01.177Z,21.77
2023-04-24T22:42:02.751Z,20.55
2023-04-24T22:44:04.260Z,20.75
2023-04-24T22:46:05.747Z,20.38
2023-04-24T22:48:07.407Z,19.33
2023-04-24T22:50:10.668Z,19.92
2023-04-24T22:52:14.526Z,18.90
2023-04-24T22:54:15.940Z,19.80
2023-04-24T22:56:17.527Z,19.63
2023-04-24T22:58:18.969Z,19.52
2023-04-24T23:00:20.699Z,18.15
2023-04-24T23:02:23.241Z,18.63
2023-04-24T23:04:25.163Z,18.73
2023-04-24T23:06:26.899Z,17.88
2023-04-24T23:08:30.568Z,18.20
2023-04-24T23:10:32.048Z,16.58
2023-04-24T23:12:33.542Z,17.88
2023-04-24T23:14:35.046Z,18.63
2023-04-24T23:16:41.231Z,17.92
2023-04-24T23:18:42.659Z,17.98
2023-04-24T23:20:44.475Z,16.70
2023-04-24T23:22:46.004Z,14.60
2023-04-24T23:24:47.465Z,12.63
2023-04-24T23:26:48.897Z,10.88
2023-04-24T23:28:50.414Z,11.18
2023-04-24T23:30:51.834Z,11.68
2023-04-24T23:32:53.400Z,11.30
2023-04-24T23:34:54.914Z,9.73
2023-04-24T23:36:56.375Z,9.68
2023-04-24T23:38:57.779Z,11.30
2023-04-24T23:40:59.202Z,11.88
2023-04-24T23:43:06.804Z,10.07
2023-04-24T23:45:10.942Z,10.15
2023-04-24T23:47:12.596Z,8.43
2023-04-24T23:49:14.785Z,7.82
2023-04-24T23:51:16.245Z,8.27
2023-04-24T23:53:17.691Z,8.88
2023-04-24T23:55:19.127Z,7.72
2023-04-24T23:57:21.676Z,7.50
2023-04-24T23:59:23.183Z,7.07
